createdAt,value
2019-02-09T00:01:08.326Z,9.83
2019-02-09T00:03:36.411Z,9.82
2019-02-09T00:06:05.291Z,9.79
2019-02-09T00:08:33.472Z,9.78
2019-02-09T00:11:01.566Z,9.78
2019-02-09T00:13:30.069Z,9.79
2019-02-09T00:15:58.340Z,9.81
2019-02-09T00:18:26.510Z,9.83
2019-02-09T00:20:54.574Z,9.87
2019-02-09T00:23:22.635Z,9.87
2019-02-09T00:25:51.524Z,9.90
2019-02-09T00:28:19.899Z,9.90
2019-02-09T00:30:47.975Z,9.90
2019-02-09T00:33:16.098Z,9.91
2019-02-09T00:35:44.186Z,9.95
2019-02-09T00:38:13.888Z,9.95
2019-02-09T00:40:41.976Z,9.95
2019-02-09T00:43:10.057Z,9.97
2019-02-09T00:45:38.318Z,10.00
2019-02-09T00:48:06.383Z,10.02
2019-02-09T00:50:37.141Z,10.05
2019-02-09T00:53:06.830Z,10.09
2019-02-09T00:55:34.932Z,10.12
2019-02-09T00:58:03.465Z,10.14
2019-02-09T01:00:31.893Z,10.18
2019-02-09T01:03:00.036Z,10.22
2019-02-09T01:05:32.294Z,10.28
2019-02-09T01:08:00.356Z,10.35
2019-02-09T01:10:30.255Z,10.45
2019-02-09T01:12:59.111Z,10.52
2019-02-09T01:15:27.548Z,10.60
2019-02-09T01:17:55.657Z,10.69
2019-02-09T01:20:24.343Z,10.77
2019-02-09T01:22:53.451Z,10.88
2019-02-09T01:25:21.566Z,10.97
2019-02-09T01:27:51.482Z,11.05
2019-02-09T01:30:32.423Z,11.10
2019-02-09T01:33:00.471Z,11.16
2019-02-09T01:35:28.541Z,11.25
2019-02-09T01:37:56.697Z,11.33
2019-02-09T01:40:25.903Z,11.42
2019-02-09T01:42:54.377Z,11.49
2019-02-09T01:45:25.622Z,11.57
2019-02-09T01:47:53.836Z,11.65
2019-02-09T01:50:22.344Z,11.70
2019-02-09T01:52:50.509Z,11.76
2019-02-09T01:55:18.667Z,11.80
2019-02-09T01:57:47.096Z,11.82
2019-02-09T02:00:18.717Z,11.83
2019-02-09T02:02:47.394Z,11.84
2019-02-09T02:05:16.599Z,11.86
2019-02-09T02:07:44.748Z,11.85
2019-02-09T02:10:23.699Z,11.85
2019-02-09T02:12:51.832Z,11.82
2019-02-09T02:15:20.487Z,11.76
2019-02-09T02:17:49.131Z,11.68
2019-02-09T02:20:19.431Z,11.62
2019-02-09T02:22:47.475Z,11.58
2019-02-09T02:25:16.556Z,11.55
2019-02-09T02:27:44.626Z,11.56
2019-02-09T02:30:27.673Z,11.55
2019-02-09T02:32:55.724Z,11.50
2019-02-09T02:35:23.794Z,11.49
2019-02-09T02:37:52.016Z,11.48
2019-02-09T02:40:20.718Z,11.47
2019-02-09T02:42:49.545Z,11.45
2019-02-09T02:45:18.106Z,11.44
2019-02-09T02:47:47.259Z,11.43
2019-02-09T02:50:17.522Z,11.42
2019-02-09T02:52:45.583Z,11.40
2019-02-09T02:55:19.310Z,11.34
2019-02-09T02:57:50.553Z,11.29
2019-02-09T03:00:30.996Z,11.25
2019-02-09T03:02:52.733Z,11.20
2019-02-09T03:05:22.202Z,11.14
2019-02-09T03:07:50.477Z,11.11
2019-02-09T03:10:18.740Z,11.08
2019-02-09T03:12:46.791Z,11.05
2019-02-09T03:15:18.510Z,11.01
2019-02-09T03:17:46.658Z,10.97
2019-02-09T03:20:16.623Z,10.96
2019-02-09T03:22:44.659Z,10.98
2019-02-09T03:25:19.101Z,10.98
2019-02-09T03:27:47.534Z,10.99
2019-02-09T03:30:18.029Z,10.98
2019-02-09T03:32:46.075Z,10.94
2019-02-09T03:35:14.819Z,10.89
2019-02-09T03:37:43.338Z,10.84
2019-02-09T03:40:14.613Z,10.81
2019-02-09T03:42:42.752Z,10.78
2019-02-09T03:45:21.806Z,10.75
2019-02-09T03:47:50.106Z,10.77
2019-02-09T03:50:18.887Z,10.77
2019-02-09T03:52:47.042Z,10.75
2019-02-09T03:55:15.789Z,10.71
2019-02-09T03:57:43.871Z,10.69
2019-02-09T04:00:18.543Z,10.65
2019-02-09T04:02:46.866Z,10.62
2019-02-09T04:05:14.924Z,10.61
2019-02-09T04:07:43.270Z,10.62
2019-02-09T04:10:14.122Z,10.63
2019-02-09T04:12:43.320Z,10.62
2019-02-09T04:15:13.326Z,10.61
2019-02-09T04:17:41.413Z,10.61
2019-02-09T04:20:13.514Z,10.63
2019-02-09T04:22:42.012Z,10.64
2019-02-09T04:25:11.630Z,10.62
2019-02-09T04:27:39.682Z,10.61
2019-02-09T04:30:14.933Z,10.60
2019-02-09T04:32:42.870Z,10.60
2019-02-09T04:35:10.967Z,10.58
2019-02-09T04:37:39.011Z,10.58
2019-02-09T04:40:10.608Z,10.57
2019-02-09T04:42:38.666Z,10.56
2019-02-09T04:45:08.550Z,10.57
2019-02-09T04:47:36.609Z,10.59
2019-02-09T04:50:08.007Z,10.60
2019-02-09T04:52:37.477Z,10.65
2019-02-09T04:55:08.334Z,10.66
2019-02-09T04:57:36.342Z,10.71
2019-02-09T05:00:07.576Z,10.71
2019-02-09T05:02:35.619Z,10.73
2019-02-09T05:05:04.455Z,10.75
2019-02-09T05:07:32.894Z,10.77
2019-02-09T05:10:00.986Z,10.81
2019-02-09T05:12:29.024Z,10.83
2019-02-09T05:14:57.044Z,10.84
2019-02-09T05:17:25.072Z,10.87
2019-02-09T05:19:53.155Z,10.87
2019-02-09T05:22:21.155Z,10.86
2019-02-09T05:24:49.205Z,10.87
2019-02-09T05:27:17.243Z,10.88
2019-02-09T05:29:45.287Z,10.87
2019-02-09T05:32:13.681Z,10.87
2019-02-09T05:34:41.759Z,10.89
2019-02-09T05:37:09.838Z,10.89
2019-02-09T05:39:38.251Z,10.90
2019-02-09T05:42:06.329Z,10.92
2019-02-09T05:44:34.379Z,10.93
2019-02-09T05:47:02.626Z,10.92
2019-02-09T05:49:30.666Z,10.94
2019-02-09T05:51:58.702Z,10.98
2019-02-09T05:54:26.780Z,10.99
2019-02-09T05:56:54.849Z,11.03
2019-02-09T05:59:22.927Z,11.05
2019-02-09T06:01:51.038Z,11.09
2019-02-09T06:04:19.054Z,11.12
2019-02-09T06:06:47.112Z,11.17
2019-02-09T06:09:15.144Z,11.23
2019-02-09T06:11:43.179Z,11.27
2019-02-09T06:14:12.747Z,11.26
2019-02-09T06:16:40.746Z,11.24
2019-02-09T06:19:08.811Z,11.24
2019-02-09T06:21:36.939Z,11.27
2019-02-09T06:24:04.991Z,11.27
2019-02-09T06:26:33.042Z,11.23
2019-02-09T06:29:01.119Z,11.18
2019-02-09T06:31:29.191Z,11.14
2019-02-09T06:33:57.238Z,11.14
2019-02-09T06:36:25.289Z,11.13
2019-02-09T06:38:53.337Z,11.04
2019-02-09T06:41:21.607Z,10.92
2019-02-09T06:43:49.643Z,10.84
2019-02-09T06:46:17.747Z,10.75
2019-02-09T06:48:45.805Z,10.68
2019-02-09T06:51:13.872Z,10.61
2019-02-09T06:53:41.987Z,10.53
2019-02-09T06:56:11.493Z,10.49
2019-02-09T06:58:40.025Z,10.43
2019-02-09T07:01:08.120Z,10.33
2019-02-09T07:03:36.525Z,10.34
2019-02-09T07:06:04.885Z,10.28
2019-02-09T07:08:33.143Z,10.26
2019-02-09T07:11:01.172Z,10.24
2019-02-09T07:13:29.698Z,10.22
2019-02-09T07:15:57.762Z,10.16
2019-02-09T07:18:25.818Z,10.11
2019-02-09T07:20:53.939Z,10.06
2019-02-09T07:23:22.137Z,10.03
2019-02-09T07:25:50.179Z,9.99
2019-02-09T07:28:18.617Z,9.98
2019-02-09T07:30:46.811Z,9.99
2019-02-09T07:33:14.845Z,10.02
2019-02-09T07:35:43.874Z,10.02
2019-02-09T07:38:13.452Z,10.03
2019-02-09T07:40:41.505Z,10.05
2019-02-09T07:43:09.613Z,10.05
2019-02-09T07:45:37.835Z,10.08
2019-02-09T07:48:05.899Z,10.10
2019-02-09T07:50:33.950Z,10.11
2019-02-09T07:53:01.928Z,10.12
2019-02-09T07:55:31.068Z,10.12
2019-02-09T07:57:59.133Z,10.15
2019-02-09T08:00:28.457Z,10.19
2019-02-09T08:02:56.993Z,10.22
2019-02-09T08:05:27.240Z,10.24
2019-02-09T08:07:55.289Z,10.30
2019-02-09T08:10:26.419Z,10.34
2019-02-09T08:12:55.123Z,10.38
2019-02-09T08:15:25.792Z,10.41
2019-02-09T08:17:53.857Z,10.44
2019-02-09T08:20:24.128Z,10.47
2019-02-09T08:22:52.877Z,10.48
2019-02-09T08:25:23.333Z,10.49
2019-02-09T08:27:51.886Z,10.49
2019-02-09T08:30:26.360Z,10.54
2019-02-09T08:32:54.878Z,10.58
2019-02-09T08:35:23.133Z,10.59
2019-02-09T08:37:52.491Z,10.62
2019-02-09T08:40:20.849Z,10.68
2019-02-09T08:42:49.161Z,10.71
2019-02-09T08:45:18.141Z,10.73
2019-02-09T08:47:46.529Z,10.75
2019-02-09T08:50:24.188Z,10.78
2019-02-09T08:52:52.260Z,10.80
2019-02-09T08:55:20.431Z,10.83
2019-02-09T08:57:48.534Z,10.86
2019-02-09T09:00:20.499Z,10.89
2019-02-09T09:02:48.799Z,10.92
2019-02-09T09:05:17.015Z,10.94
2019-02-09T09:07:45.326Z,10.99
2019-02-09T09:10:16.594Z,11.03
2019-02-09T09:12:45.961Z,11.08
2019-02-09T09:15:18.645Z,11.13
2019-02-09T09:17:46.957Z,11.18
2019-02-09T09:20:22.759Z,11.23
2019-02-09T09:22:50.784Z,11.30
2019-02-09T09:25:19.373Z,11.36
2019-02-09T09:27:47.418Z,11.41
2019-02-09T09:30:19.192Z,11.47
2019-02-09T09:32:47.272Z,11.56
2019-02-09T09:35:15.374Z,11.62
2019-02-09T09:37:43.371Z,11.70
2019-02-09T09:40:19.917Z,11.78
2019-02-09T09:42:48.148Z,11.84
2019-02-09T09:45:24.028Z,11.91
2019-02-09T09:47:52.050Z,11.99
2019-02-09T09:50:21.000Z,12.02
2019-02-09T09:52:49.568Z,12.10
2019-02-09T09:55:18.002Z,12.19
2019-02-09T09:57:46.207Z,12.24
2019-02-09T10:00:16.809Z,12.32
2019-02-09T10:02:44.831Z,12.39
2019-02-09T10:05:13.159Z,12.47
2019-02-09T10:07:41.336Z,12.52
2019-02-09T10:10:14.629Z,12.63
2019-02-09T10:12:42.635Z,12.74
2019-02-09T10:15:13.364Z,12.88
2019-02-09T10:17:41.686Z,13.01
2019-02-09T10:20:14.539Z,13.12
2019-02-09T10:22:42.558Z,13.22
2019-02-09T10:25:11.161Z,13.30
2019-02-09T10:27:39.293Z,13.38
2019-02-09T10:30:13.675Z,13.41
2019-02-09T10:32:44.437Z,13.44
2019-02-09T10:35:12.941Z,13.46
2019-02-09T10:37:41.252Z,13.44
2019-02-09T10:40:14.827Z,13.43
2019-02-09T10:42:42.881Z,13.45
2019-02-09T10:45:15.169Z,13.48
2019-02-09T10:47:43.187Z,13.47
2019-02-09T10:50:17.301Z,13.40
2019-02-09T10:52:46.489Z,13.35
2019-02-09T10:55:14.659Z,13.35
2019-02-09T10:57:43.984Z,13.38
2019-02-09T11:00:20.045Z,13.42
2019-02-09T11:02:52.220Z,13.46
2019-02-09T11:05:18.458Z,13.50
2019-02-09T11:07:46.680Z,13.56
2019-02-09T11:10:17.225Z,13.58
2019-02-09T11:12:45.295Z,13.60
2019-02-09T11:15:17.190Z,13.60
2019-02-09T11:17:45.344Z,13.64
2019-02-09T11:20:17.023Z,13.62
2019-02-09T11:22:45.226Z,13.63
2019-02-09T11:25:13.860Z,13.63
2019-02-09T11:27:41.933Z,13.75
2019-02-09T11:30:17.177Z,13.87
2019-02-09T11:32:45.313Z,13.95
2019-02-09T11:35:14.448Z,13.96
2019-02-09T11:37:42.599Z,13.97
2019-02-09T11:40:11.251Z,14.04
2019-02-09T11:42:39.458Z,14.10
2019-02-09T11:45:12.250Z,14.12
2019-02-09T11:47:40.331Z,14.11
2019-02-09T11:50:10.157Z,14.10
2019-02-09T11:52:38.333Z,14.13
2019-02-09T11:55:08.051Z,14.13
2019-02-09T11:57:36.219Z,14.12
2019-02-09T12:00:18.487Z,14.14
2019-02-09T12:02:46.551Z,14.12
2019-02-09T12:05:14.731Z,14.06
2019-02-09T12:07:43.103Z,14.03
2019-02-09T12:10:11.851Z,13.99
2019-02-09T12:12:40.015Z,14.01
2019-02-09T12:15:12.799Z,14.08
2019-02-09T12:17:41.165Z,14.16
2019-02-09T12:20:12.138Z,14.24
2019-02-09T12:22:40.215Z,14.29
2019-02-09T12:25:12.856Z,14.30
2019-02-09T12:27:41.312Z,14.33
2019-02-09T12:30:15.022Z,14.36
2019-02-09T12:32:43.072Z,14.43
2019-02-09T12:35:12.142Z,14.47
2019-02-09T12:37:40.226Z,14.50
2019-02-09T12:40:15.732Z,14.56
2019-02-09T12:42:43.883Z,14.55
2019-02-09T12:45:14.053Z,14.54
2019-02-09T12:47:42.347Z,14.55
2019-02-09T12:50:12.431Z,14.61
2019-02-09T12:52:40.794Z,14.65
2019-02-09T12:55:08.981Z,14.72
2019-02-09T12:57:38.251Z,14.77
2019-02-09T13:00:12.641Z,14.72
2019-02-09T13:02:40.878Z,14.67
2019-02-09T13:05:10.468Z,14.65
2019-02-09T13:07:38.793Z,14.63
2019-02-09T13:10:07.549Z,14.59
2019-02-09T13:12:35.650Z,14.48
2019-02-09T13:15:05.151Z,14.37
2019-02-09T13:17:33.449Z,14.30
2019-02-09T13:20:01.486Z,14.31
2019-02-09T13:22:29.556Z,14.30
2019-02-09T13:24:57.569Z,14.29
2019-02-09T13:27:25.713Z,14.25
2019-02-09T13:29:53.830Z,14.20
2019-02-09T13:32:21.879Z,14.16
2019-02-09T13:34:49.957Z,14.16
2019-02-09T13:37:17.944Z,14.14
2019-02-09T13:39:46.002Z,14.14
2019-02-09T13:42:15.324Z,14.13
2019-02-09T13:44:43.482Z,14.13
2019-02-09T13:47:11.525Z,14.14
2019-02-09T13:49:41.034Z,14.12
2019-02-09T13:52:09.267Z,14.12
2019-02-09T13:54:37.332Z,14.10
2019-02-09T13:57:05.373Z,14.12
2019-02-09T13:59:33.445Z,14.15
2019-02-09T14:02:01.458Z,14.11
2019-02-09T14:04:29.418Z,14.10
2019-02-09T14:06:57.437Z,14.10
2019-02-09T14:09:25.499Z,14.12
2019-02-09T14:11:53.856Z,14.13
2019-02-09T14:14:21.952Z,14.11
2019-02-09T14:16:50.250Z,14.09
2019-02-09T14:19:18.432Z,14.11
2019-02-09T14:21:46.440Z,14.12
2019-02-09T14:24:16.046Z,14.14
2019-02-09T14:26:44.068Z,14.12
2019-02-09T14:29:12.467Z,14.13
2019-02-09T14:31:40.501Z,14.11
2019-02-09T14:34:08.522Z,14.10
2019-02-09T14:36:36.595Z,14.10
2019-02-09T14:39:10.436Z,14.12
2019-02-09T14:41:38.506Z,14.10
2019-02-09T14:44:06.654Z,14.10
2019-02-09T14:46:34.739Z,14.09
2019-02-09T14:49:03.113Z,14.10
2019-02-09T14:51:31.537Z,14.10
2019-02-09T14:53:59.561Z,14.11
2019-02-09T14:56:27.639Z,14.12
2019-02-09T14:58:55.681Z,14.14
2019-02-09T15:01:23.778Z,14.12
2019-02-09T15:03:51.795Z,14.13
2019-02-09T15:06:19.894Z,14.11
2019-02-09T15:08:48.038Z,14.12
2019-02-09T15:11:16.110Z,14.09
2019-02-09T15:13:44.261Z,14.08
2019-02-09T15:16:26.881Z,14.09
2019-02-09T15:18:54.923Z,14.11
2019-02-09T15:21:25.716Z,14.09
2019-02-09T15:23:53.877Z,14.09
2019-02-09T15:26:21.997Z,14.10
2019-02-09T15:28:51.055Z,14.09
2019-02-09T15:31:19.112Z,14.09
2019-02-09T15:33:48.292Z,14.07
2019-02-09T15:36:17.646Z,14.07
2019-02-09T15:38:45.655Z,14.06
2019-02-09T15:41:13.854Z,14.03
2019-02-09T15:43:41.930Z,13.98
2019-02-09T15:46:10.031Z,13.94
2019-02-09T15:48:38.452Z,13.92
2019-02-09T15:51:06.536Z,13.87
2019-02-09T15:53:34.735Z,13.79
2019-02-09T15:56:03.708Z,13.72
2019-02-09T15:58:31.725Z,13.66
2019-02-09T16:00:59.834Z,13.56
2019-02-09T16:03:27.872Z,13.48
2019-02-09T16:05:56.084Z,13.44
2019-02-09T16:08:24.176Z,13.38
2019-02-09T16:10:52.239Z,13.30
2019-02-09T16:13:20.319Z,13.23
2019-02-09T16:15:48.430Z,13.20
2019-02-09T16:18:19.178Z,13.17
2019-02-09T16:20:47.654Z,13.12
2019-02-09T16:23:15.668Z,13.07
2019-02-09T16:25:43.806Z,13.05
2019-02-09T16:28:11.854Z,13.03
2019-02-09T16:30:40.057Z,12.99
2019-02-09T16:33:08.255Z,12.99
2019-02-09T16:35:36.446Z,12.97
2019-02-09T16:38:04.732Z,12.95
2019-02-09T16:40:32.914Z,12.92
2019-02-09T16:43:01.325Z,12.92
2019-02-09T16:45:31.762Z,12.91
2019-02-09T16:48:00.240Z,12.89
2019-02-09T16:50:28.445Z,12.88
2019-02-09T16:52:57.091Z,12.87
2019-02-09T16:55:25.185Z,12.87
2019-02-09T16:57:53.512Z,12.87
2019-02-09T17:00:31.544Z,12.87
2019-02-09T17:02:59.681Z,12.84
2019-02-09T17:05:27.863Z,12.84
2019-02-09T17:08:04.913Z,12.84
2019-02-09T17:10:34.153Z,12.84
2019-02-09T17:13:02.280Z,12.85
2019-02-09T17:15:30.372Z,12.80
2019-02-09T17:17:58.460Z,12.81
2019-02-09T17:20:26.611Z,12.78
2019-02-09T17:22:54.714Z,12.77
2019-02-09T17:25:22.865Z,12.76
2019-02-09T17:27:51.035Z,12.76
2019-02-09T17:30:26.213Z,12.75
2019-02-09T17:32:54.532Z,12.72
2019-02-09T17:35:22.578Z,12.73
2019-02-09T17:37:50.818Z,12.73
2019-02-09T17:40:33.087Z,12.70
2019-02-09T17:43:01.178Z,12.67
2019-02-09T17:45:37.116Z,12.63
2019-02-09T17:48:05.349Z,12.58
2019-02-09T17:50:35.316Z,12.55
2019-02-09T17:53:04.027Z,12.53
2019-02-09T17:55:32.149Z,12.50
2019-02-09T17:58:00.798Z,12.49
2019-02-09T18:00:36.102Z,12.47
2019-02-09T18:03:04.492Z,12.44
2019-02-09T18:05:32.626Z,12.40
2019-02-09T18:08:00.877Z,12.33
2019-02-09T18:10:29.108Z,12.25
2019-02-09T18:12:57.549Z,12.20
2019-02-09T18:15:25.803Z,12.14
2019-02-09T18:17:53.896Z,12.12
2019-02-09T18:20:22.070Z,12.09
2019-02-09T18:22:50.186Z,12.07
2019-02-09T18:25:18.363Z,12.05
2019-02-09T18:27:46.579Z,12.03
2019-02-09T18:30:20.157Z,12.05
2019-02-09T18:32:48.362Z,12.03
2019-02-09T18:35:17.583Z,12.02
2019-02-09T18:37:45.790Z,12.02
2019-02-09T18:40:18.822Z,12.02
2019-02-09T18:42:48.467Z,12.02
2019-02-09T18:45:24.895Z,11.99
2019-02-09T18:47:53.129Z,11.99
2019-02-09T18:50:23.999Z,11.96
2019-02-09T18:52:54.127Z,11.97
2019-02-09T18:55:23.718Z,11.98
2019-02-09T18:57:52.093Z,11.94
2019-02-09T19:00:27.593Z,11.93
2019-02-09T19:02:55.828Z,11.92
2019-02-09T19:05:23.941Z,11.86
2019-02-09T19:07:52.506Z,11.83
2019-02-09T19:10:24.795Z,11.82
2019-02-09T19:12:53.164Z,11.79
2019-02-09T19:15:22.871Z,11.78
2019-02-09T19:17:51.183Z,11.75
2019-02-09T19:20:28.987Z,11.74
2019-02-09T19:22:59.206Z,11.72
2019-02-09T19:25:28.087Z,11.70
2019-02-09T19:27:56.131Z,11.71
2019-02-09T19:30:24.691Z,11.74
2019-02-09T19:32:53.042Z,11.77
2019-02-09T19:35:21.801Z,11.76
2019-02-09T19:37:49.973Z,11.76
2019-02-09T19:40:19.452Z,11.75
2019-02-09T19:42:48.270Z,11.74
2019-02-09T19:45:22.539Z,11.72
2019-02-09T19:47:51.162Z,11.71
2019-02-09T19:50:21.020Z,11.66
2019-02-09T19:52:49.115Z,11.66
2019-02-09T19:55:19.804Z,11.63
2019-02-09T19:57:49.133Z,11.63
2019-02-09T20:00:21.892Z,11.63
2019-02-09T20:02:50.126Z,11.59
2019-02-09T20:05:19.824Z,11.57
2019-02-09T20:07:48.148Z,11.55
2019-02-09T20:10:21.608Z,11.55
2019-02-09T20:12:49.780Z,11.56
2019-02-09T20:15:17.913Z,11.55
2019-02-09T20:17:46.163Z,11.55
2019-02-09T20:20:14.485Z,11.57
2019-02-09T20:22:42.658Z,11.56
2019-02-09T20:25:14.799Z,11.56
2019-02-09T20:27:43.312Z,11.55
2019-02-09T20:30:21.417Z,11.54
2019-02-09T20:32:49.829Z,11.53
2019-02-09T20:35:18.323Z,11.48
2019-02-09T20:37:46.412Z,11.45
2019-02-09T20:40:28.512Z,11.42
2019-02-09T20:43:02.270Z,11.41
2019-02-09T20:45:27.346Z,11.37
2019-02-09T20:47:55.456Z,11.36
2019-02-09T20:50:23.501Z,11.35
2019-02-09T20:52:51.894Z,11.36
2019-02-09T20:55:21.433Z,11.36
2019-02-09T20:57:49.477Z,11.37
2019-02-09T21:00:19.230Z,11.37
2019-02-09T21:02:48.672Z,11.36
2019-02-09T21:05:17.245Z,11.36
2019-02-09T21:07:45.679Z,11.37
2019-02-09T21:10:21.115Z,11.36
2019-02-09T21:12:49.283Z,11.36
2019-02-09T21:15:19.317Z,11.37
2019-02-09T21:17:47.478Z,11.37
2019-02-09T21:20:15.694Z,11.37
2019-02-09T21:22:43.747Z,11.38
2019-02-09T21:25:16.503Z,11.37
2019-02-09T21:27:44.598Z,11.34
2019-02-09T21:30:15.723Z,11.35
2019-02-09T21:32:43.905Z,11.34
2019-02-09T21:35:12.279Z,11.32
2019-02-09T21:37:41.417Z,11.30
2019-02-09T21:40:15.607Z,11.30
2019-02-09T21:42:43.810Z,11.30
2019-02-09T21:45:14.328Z,11.29
2019-02-09T21:47:42.955Z,11.30
2019-02-09T21:50:15.500Z,11.30
2019-02-09T21:52:43.914Z,11.31
2019-02-09T21:55:12.311Z,11.29
2019-02-09T21:57:40.384Z,11.31
2019-02-09T22:00:27.049Z,11.32
2019-02-09T22:02:55.177Z,11.32
2019-02-09T22:09:12.607Z,11.33
2019-02-09T22:11:48.953Z,11.32
2019-02-09T22:14:17.043Z,11.29
2019-02-09T22:16:46.834Z,11.24
2019-02-09T22:19:24.227Z,11.21
2019-02-09T22:21:52.550Z,11.16
2019-02-09T22:24:21.786Z,11.09
2019-02-09T22:26:50.083Z,11.06
2019-02-09T22:29:18.513Z,11.01
2019-02-09T22:31:46.623Z,10.96
2019-02-09T22:34:14.784Z,10.91
2019-02-09T22:36:43.258Z,10.86
2019-02-09T22:39:11.436Z,10.80
2019-02-09T22:41:40.495Z,10.75
2019-02-09T22:44:08.609Z,10.73
2019-02-09T22:46:37.541Z,10.72
2019-02-09T22:49:16.789Z,10.68
2019-02-09T22:51:45.011Z,10.69
2019-02-09T22:54:13.415Z,10.65
2019-02-09T22:56:41.609Z,10.61
2019-02-09T22:59:09.689Z,10.59
2019-02-09T23:01:48.015Z,10.57
2019-02-09T23:04:37.028Z,10.54
2019-02-09T23:07:25.335Z,10.50
2019-02-09T23:09:53.379Z,10.46
2019-02-09T23:12:22.020Z,10.39
2019-02-09T23:14:50.245Z,10.34
2019-02-09T23:17:18.721Z,10.30
2019-02-09T23:19:46.777Z,10.29
2019-02-09T23:22:14.821Z,10.26
2019-02-09T23:24:42.882Z,10.25
2019-02-09T23:27:10.963Z,10.24
2019-02-09T23:29:39.097Z,10.25
2019-02-09T23:32:07.158Z,10.24
2019-02-09T23:34:35.221Z,10.24
2019-02-09T23:37:03.289Z,10.24
2019-02-09T23:39:31.355Z,10.23
2019-02-09T23:42:02.464Z,10.23
2019-02-09T23:44:30.536Z,10.22
2019-02-09T23:46:58.601Z,10.21
2019-02-09T23:49:26.721Z,10.19
2019-02-09T23:51:55.067Z,10.16
2019-02-09T23:54:25.633Z,10.15
2019-02-09T23:56:53.754Z,10.13
2019-02-09T23:59:21.822Z,10.12
